Snake Valley, Nevada Weather observations

Data are for 10 minute period ending at time listed.
 Day   Time   Solar   Ave.   Ave.  Ave.  Vector  Max.   Baro.   Total    
  of    of     Rad.   Air    Rel.  Wind   Wind   Wind  Press.  Precip.   
Year   Day            Temp.  Hum.  Speed  Dir.   Gust                    
2014   (PST)  Kw/m2    F      %     mph   deg.    mph    mb.     in.     
-------------------------------------------------------------------------
 293   20:50   0.00   62.2    36   14.3   166    18.6   838.5    0.00 
 293   21:00   0.00   61.5    38   13.7   154    17.4   838.4    0.00 
 293   21:10   0.00   61.2    39   14.2   158    19.4   838.2    0.00 
 293   21:20   0.00   62.1    37   17.1   169    22.4   838.1    0.00 
 293   21:30   0.00   61.4    38   15.4   173    20.6   838.1    0.00 
 293   21:40   0.00   61.5    38   17.4   173    25.4   838.0    0.00 
 293   21:50   0.00   61.4    38   17.0   177    23.3   838.1    0.00 
 293   22:00   0.00   61.3    39   15.5   179    21.0   838.1    0.00 
 293   22:10   0.00   61.2    39   15.6   173    22.0   838.1    0.00 
 293   22:20   0.00   61.0    39   15.1   171    19.6   838.2    0.00 
 293   22:30   0.00   60.9    40   13.8   160    20.0   838.2    0.00 
 293   22:40   0.00   60.9    40   14.6   153    18.0   838.0    0.00 
 293   22:50   0.00   61.0    40   15.2   150    20.2   838.0    0.00 
 293   23:00   0.00   61.0    40   12.8   160    17.7   838.2    0.00 
 293   23:10   0.00   60.7    41   11.3   146    15.5   838.2    0.00 
 293   23:20   0.00   60.2    42   10.9   140    15.1   838.2    0.00 
 293   23:30   0.00   59.8    43   10.3   135    14.0   838.2    0.00 
 293   23:40   0.00   59.6    43   12.3   134    17.0   838.3    0.00 
 293   23:50   0.00   60.3    42    9.8   145    17.6   838.3    0.00 
 294    0:00   0.00   59.1    45    7.5   120    11.0   838.3    0.00 
 294    0:10   0.00   58.5    46    8.1   141    11.7   838.3    0.00 
 294    0:20   0.00   57.8    47    6.9   134    11.0   838.3    0.00 
 294    0:30   0.00   58.0    47    5.9   127    11.2   838.2    0.00 
 294    0:40   0.00   61.1    42    7.2   180    11.2   838.2    0.00 
 294    0:50   0.00   61.3    41    5.3   188     8.3   838.1    0.00 
 294    1:00   0.00   61.1    42    6.5   186    11.5   838.0    0.00 
 294    1:10   0.00   61.4    41    6.8   196     9.8   838.1    0.00 
 294    1:20   0.00   61.3    42    7.5   200    12.5   838.0    0.00 
 294    1:30   0.00   61.8    41   10.6   186    15.9   837.7    0.00 
 294    1:40   0.00   61.4    42    9.9   195    15.3   837.8    0.00 
 294    1:50   0.00   61.3    42   13.8   184    18.9   837.7    0.00 
 294    2:00   0.00   60.7    43   12.9   184    17.6   837.5    0.00 
 294    2:10   0.00   60.5    43   10.7   192    17.7   837.7    0.00 
 294    2:20   0.00   60.4    43   11.6   188    18.6   837.8    0.00 
 294    2:30   0.00   60.2    44   10.3   187    16.4   837.8    0.00 
 294    2:40   0.00   60.5    43    9.9   181    14.9   837.9    0.00 
 294    2:50   0.00   60.4    43    8.7   179    13.7   838.0    0.00 
 294    3:00   0.00   59.4    45    7.3   188    16.5   837.9    0.00 
 294    3:10   0.00   59.0    46    5.8   197    10.2   838.0    0.00 
 294    3:20   0.00   60.9    42   10.4   169    16.5   838.1    0.00 
 294    3:30   0.00   60.7    42   11.7   160    16.5   838.1    0.00 
 294    3:40   0.00   59.9    43    9.3   161    14.8   838.1    0.00 
 294    3:50   0.00   60.6    41   10.5   161    21.0   838.1    0.00 
 294    4:00   0.00   60.5    41   11.1   164    16.5   838.1    0.00 
 294    4:10   0.00   60.6    40   10.8   159    13.7   838.2    0.00 
 294    4:20   0.00   60.6    40   11.3   166    16.0   838.4    0.00 
 294    4:30   0.00   59.8    42    8.3   174    14.7   838.6    0.00 
 294    4:40   0.00   58.1    45    6.7   193     9.3   838.7    0.00 
 294    4:50   0.00   57.4    47    8.7   183    13.4   838.6    0.00 
 294    5:00   0.00   57.2    47    7.5   176    14.9   838.6    0.00 
 294    5:10   0.00   58.2    44    9.7   173    15.4   838.6    0.00 
 294    5:20   0.00   57.8    45    9.1   172    13.2   838.7    0.00 
 294    5:30   0.00   56.9    47    8.1   191    10.7   838.6    0.00 
 294    5:40   0.00   56.9    47   10.2   181    15.6   838.6    0.00 
 294    5:50   0.00   57.3    46    9.4   189    15.6   838.6    0.00 
 294    6:00   0.01   57.9    44   11.1   196    15.2   838.6    0.00 
 294    6:10   0.02   56.9    47   10.9   206    16.4   838.6    0.00 
 294    6:20   0.04   57.9    44   10.8   203    15.5   838.6    0.00 
 294    6:30   0.06   58.9    43   12.3   202    17.6   838.6    0.00 
 294    6:40   0.09   60.2    40   11.8   196    16.3   838.6    0.00 
 294    6:50   0.11   61.0    39    9.0   204    14.5   838.8    0.00 
 294    7:00   0.14   61.4    40    3.5   218     6.7   839.1    0.00 
 294    7:10   0.17   61.2    42    2.1    86     6.1   839.1    0.00 
 294    7:20   0.20   62.9    37    7.5   205    13.7   838.9    0.00 
 294    7:30   0.23   63.9    35    8.6   198    14.4   838.8    0.00 
 294    7:40   0.27   64.3    35    9.5   201    15.9   838.7    0.00 
 294    7:50   0.37   65.3    34   10.8   202    18.0   838.6    0.00 
 294    8:00   0.44   65.5    34    6.8   330    19.1   838.6    0.00 
 294    8:10   0.38   65.7    32    8.5   255    15.0   838.6    0.00 
 294    8:20   0.45   66.2    30   11.0   258    19.3   838.5    0.00 
 294    8:30   0.50   66.2    30   12.2   282    18.8   838.4    0.00 
 294    8:40   0.53   67.5    28    9.0   254    15.9   838.5    0.00 
 294    8:50   0.53   67.6    29    9.3   283    12.7   838.5    0.00 
 294    9:00   0.56   67.9    28    7.0   270    13.4   838.5    0.00 
 294    9:10   0.60   68.8    26    5.8   270    12.8   838.4    0.00 
 294    9:20   0.63   68.7    27    7.3   270    11.8   838.4    0.00 
 294    9:30   0.67   68.5    28    9.6   278    16.2   838.4    0.00 
 294    9:40   0.72   68.7    29   10.2   264    16.2   838.5    0.00 
 294    9:50   0.69   68.9    27    7.7   267    12.8   838.5    0.00 
 294   10:00   0.71   70.4    22    6.1   210    14.8   838.5    0.00 
 294   10:10   0.73   72.1    19    4.1   188     9.7   838.7    0.00 
 294   10:20   0.67   71.0    21    5.0   110    10.4   838.6    0.00 
 294   10:30   0.68   70.9    19    4.0   202     7.1   838.7    0.00 
 294   10:40   0.53   70.7    21    5.2   237    10.2   838.6    0.00 
 294   10:50   0.64   69.6    24    7.4   270    11.5   838.7    0.00 
 294   11:00   0.43   68.8    27    8.4   267    14.6   838.6    0.00 
 294   11:10   0.30   67.3    28    9.6   287    15.6   838.5    0.00 
 294   11:20   0.27   66.8    27    8.4   277    13.8   838.3    0.00 
 294   11:30   0.57   67.2    28    5.7   285     9.6   838.3    0.00 
 294   11:40   0.72   70.1    22   10.7   249    19.8   838.1    0.00 
 294   11:50   0.70   70.0    23    9.5   282    18.8   838.0    0.00 
 294   12:00   0.56   69.9    22   10.8   265    16.1   837.8    0.00 
 294   12:10   0.59   70.3    23    8.6   281    14.8   837.8    0.00 
 294   12:20   0.43   68.9    23    9.2   296    14.2   837.7    0.00 
 294   12:30   0.51   69.7    24    8.3   290    17.6   837.7    0.00 
 294   12:40   0.47   69.8    22    8.3   272    15.0   837.7    0.00 
 294   12:50   0.36   69.7    21    4.8   288     9.6   837.6    0.00 
 294   13:00   0.36   68.8    24    7.2   271    11.5   837.5    0.00 
 294   13:10   0.27   68.8    25    5.7   278     9.3   837.5    0.00 
 294   13:20   0.27   68.5    25    6.1   333    16.6   837.5    0.00 
 294   13:30   0.40   66.1    32   11.6    18    16.8   837.6    0.00 
 294   13:40   0.56   66.8    31   13.7    34    24.9   837.6    0.00 
 294   13:50   0.27   65.8    30   14.4    26    20.8   837.8    0.00 
 294   14:00   0.15   63.2    32   18.7    24    27.6   837.9    0.00 
 294   14:10   0.17   62.2    33   17.6    25    25.3   838.2    0.00 
 294   14:20   0.23   61.7    33   19.1    28    27.1   838.4    0.00 
 294   14:30   0.19   60.9    34   19.6    28    27.1   838.6    0.00 
 294   14:40   0.19   60.4    33   20.1    25    27.2   838.7    0.00 
 294   14:50   0.20   60.2    33   19.9    22    27.3   838.8    0.00 
 294   15:00   0.42   61.0    32   20.2    18    27.5   838.9    0.00 
 294   15:10   0.40   61.4    32   19.3    18    27.2   839.0    0.00 
 294   15:20   0.22   60.3    32   18.7    19    25.6   839.1    0.00 
 294   15:30   0.16   59.2    33   17.2    17    24.5   839.2    0.00 
 294   15:40   0.09   58.6    33   16.3    17    24.0   839.4    0.00 
 294   15:50   0.06   57.8    33   15.0    18    22.7   839.5    0.00 
 294   16:00   0.05   57.3    33   15.1    19    23.2   839.7    0.00 
 294   16:10   0.03   56.6    34   15.0    20    21.5   839.7    0.00 
 294   16:20   0.03   56.9    32   13.7    11    24.6   839.8    0.00 
 294   16:30   0.03   56.6    31   12.6     7    20.4   840.0    0.00 
 294   16:40   0.02   56.3    31   13.0    10    19.1   840.1    0.00 
 294   16:50   0.01   55.6    31   11.9    10    18.2   840.1    0.00 
 294   17:00   0.00   54.8    31   11.3     8    19.6   840.2    0.00 
 294   17:10   0.00   54.5    31   11.0     6    17.0   840.4    0.00 
 294   17:20   0.00   53.9    31    9.5    16    15.3   840.6    0.00 
 294   17:30   0.00   53.5    32    8.8    23    14.8   840.8    0.00 
 294   17:40   0.00   52.8    33    7.7    28    13.5   840.8    0.00 
 294   17:50   0.00   52.0    34    5.7    20    10.5   841.0    0.00 
 294   18:00   0.00   51.5    34    3.2    64     6.3   841.2    0.00 
 294   18:10   0.00   50.4    34    3.0   157     7.9   841.3    0.00 
 294   18:20   0.00   50.2    34    3.6   121     7.6   841.5    0.00 
 294   18:30   0.00   49.7    34    1.5    91     6.1   841.6    0.00 
 294   18:40   0.00   50.1    34    2.0    86     4.6   841.6    0.00 
 294   18:50   0.00   50.2    35    4.0    39     7.7   841.7    0.00 
 294   19:00   0.00   50.1    35    4.2    44     9.9   841.8    0.00 
 294   19:10   0.00   50.0    34    4.2    35     7.9   842.0    0.00 
 294   19:20   0.00   49.4    35    4.1   102     7.5   842.0    0.00 
 294   19:30   0.00   47.0    38    4.8   168     9.1   842.1    0.00 
 294   19:40   0.00   47.1    38    3.0   122     5.9   842.3    0.00 
 294   19:50   0.00   46.1    42    3.8   123     6.7   842.4    0.00 
 294   20:00   0.00   46.4    39    5.1   100     8.0   842.6    0.00 
 294   20:10   0.00   46.9    38    2.9   118     5.5   842.8    0.00 
 294   20:20   0.00   47.0    36    2.1   150     4.1   842.8    0.00 
 294   20:30   0.00   47.0    36    2.4   185     3.6   842.8    0.00 
 294   20:40   0.00   45.9    38    3.5   214     5.7   842.9    0.00 

Return to Snake Valley graphs page.


Western Regional Climate Center,wrcc@dri.edu